Time;durP1;ratioP1;P1;durP2;ratioP2;P2;SDS_P1;SDS_P2;PMS_P1;PMS_P2;Temp;Humidity;BMP_temperature;BMP_pressure;BME280_temperature;BME280_humidity;BME280_pressure;Samples;Min_cycle;Max_cycle;Signal;HPM_P1;HPM_P2
2022/08/21 00:01:48;;;;;;;5.32;1.45;;;21.20;99.90;;;;;;5066350;28;20036;-83
2022/08/21 00:04:14;;;;;;;7.60;1.38;;;21.20;99.90;;;;;;5066466;28;20055;-81
2022/08/21 00:06:40;;;;;;;6.25;1.50;;;21.20;99.90;;;;;;5067059;28;20552;-83
2022/08/21 00:09:08;;;;;;;8.20;2.42;;;21.20;99.90;;;;;;5066562;28;20115;-81
2022/08/21 00:11:35;;;;;;;5.53;1.67;;;21.20;99.90;;;;;;5066062;28;20124;-83
2022/08/21 00:14:01;;;;;;;6.90;1.88;;;21.20;99.90;;;;;;5066185;28;20016;-81
2022/08/21 00:16:27;;;;;;;6.22;1.95;;;21.20;99.90;;;;;;5065996;28;20450;-82
2022/08/21 00:18:52;;;;;;;3.53;1.20;;;21.20;99.90;;;;;;5066182;28;20020;-81
2022/08/21 00:21:18;;;;;;;5.35;1.98;;;21.30;99.90;;;;;;5065476;28;20473;-81
2022/08/21 00:23:44;;;;;;;4.93;1.20;;;21.30;99.90;;;;;;5065874;28;20024;-81
2022/08/21 00:26:09;;;;;;;9.13;1.88;;;21.30;99.90;;;;;;5065695;28;20473;-81
2022/08/21 00:28:35;;;;;;;6.28;1.60;;;21.30;99.90;;;;;;5070011;28;20479;-82
2022/08/21 00:31:03;;;;;;;8.73;1.70;;;21.30;99.90;;;;;;5069640;28;20381;-82
2022/08/21 00:33:29;;;;;;;4.80;1.30;;;21.30;99.90;;;;;;5070290;28;20107;-82
2022/08/21 00:35:55;;;;;;;10.18;2.25;;;21.20;99.90;;;;;;5070180;28;20473;-82
2022/08/21 00:38:21;;;;;;;8.77;2.25;;;21.20;99.90;;;;;;5069414;28;20031;-81
2022/08/21 00:40:59;;;;;;;6.53;1.95;;;21.20;99.90;;;;;;5070335;28;20043;-83
2022/08/21 00:43:38;;;;;;;6.72;2.03;;;21.30;99.90;;;;;;5069747;28;20028;-81
2022/08/21 00:46:04;;;;;;;3.58;1.30;;;21.20;99.90;;;;;;5069171;28;20032;-82
2022/08/21 00:48:30;;;;;;;5.50;1.17;;;21.20;99.90;;;;;;5069259;28;20024;-81
2022/08/21 00:51:09;;;;;;;16.13;1.95;;;21.10;99.90;;;;;;5068463;28;20507;-81
2022/08/21 00:53:38;;;;;;;12.68;2.00;;;21.20;99.90;;;;;;5069563;28;20238;-85
2022/08/21 00:56:06;;;;;;;8.60;1.88;;;21.20;99.90;;;;;;5071235;28;20082;-84
2022/08/21 00:58:35;;;;;;;6.60;1.85;;;21.20;99.90;;;;;;5070716;28;20024;-84
2022/08/21 01:01:04;;;;;;;8.07;2.00;;;21.20;99.90;;;;;;5071632;28;20112;-83
2022/08/21 01:03:29;;;;;;;5.70;2.30;;;21.10;99.90;;;;;;5072067;28;20574;-84
2022/08/21 01:05:55;;;;;;;5.32;2.28;;;21.10;99.90;;;;;;5071005;28;20024;-82
2022/08/21 01:08:23;;;;;;;6.07;1.70;;;21.10;99.90;;;;;;5068915;28;20131;-82
2022/08/21 01:10:49;;;;;;;4.40;1.52;;;21.10;99.90;;;;;;5069591;28;20033;-82
2022/08/21 01:13:18;;;;;;;5.13;1.55;;;21.00;99.90;;;;;;5069776;28;20055;-83
2022/08/21 01:15:48;;;;;;;6.97;1.55;;;21.00;99.90;;;;;;5069292;28;20566;-83
2022/08/21 01:18:14;;;;;;;6.47;1.45;;;20.90;99.90;;;;;;5068582;28;20094;-81
2022/08/21 01:20:45;;;;;;;8.35;2.00;;;20.90;99.90;;;;;;5066858;28;20024;-79
2022/08/21 01:23:11;;;;;;;10.05;2.40;;;20.90;99.90;;;;;;5067434;28;20039;-80
2022/08/21 01:25:37;;;;;;;5.15;1.67;;;20.80;99.90;;;;;;5069288;28;20115;-80
2022/08/21 01:28:10;;;;;;;9.30;2.13;;;20.80;99.90;;;;;;5055849;28;20064;-80
2022/08/21 01:30:37;;;;;;;7.95;2.03;;;20.70;99.90;;;;;;5067543;28;20071;-77
2022/08/21 01:33:03;;;;;;;8.85;2.10;;;20.70;99.90;;;;;;5069355;28;20032;-80
2022/08/21 01:35:29;;;;;;;5.18;1.27;;;20.60;99.90;;;;;;5066765;28;20048;-80
2022/08/21 01:37:55;;;;;;;6.80;2.28;;;20.60;99.90;;;;;;5067701;28;20075;-81
2022/08/21 01:40:21;;;;;;;6.13;2.35;;;20.60;99.90;;;;;;5066662;28;20032;-79
2022/08/21 01:42:48;;;;;;;6.35;1.88;;;20.50;99.90;;;;;;5067854;28;20021;-81
2022/08/21 01:45:15;;;;;;;4.38;1.80;;;20.50;99.90;;;;;;5063417;28;20115;-80
2022/08/21 01:47:42;;;;;;;7.35;2.17;;;20.50;99.90;;;;;;5066750;28;20103;-81
2022/08/21 01:50:11;;;;;;;3.63;1.38;;;20.40;99.90;;;;;;5068567;28;20031;-79
2022/08/21 01:52:37;;;;;;;5.07;2.38;;;20.40;99.90;;;;;;5066688;28;20136;-80
2022/08/21 01:55:05;;;;;;;9.52;2.72;;;20.50;99.90;;;;;;5066933;28;20135;-80
2022/08/21 01:57:32;;;;;;;8.43;2.30;;;20.50;99.90;;;;;;5067247;28;20083;-80
2022/08/21 01:59:58;;;;;;;5.07;1.73;;;20.40;99.90;;;;;;5068996;28;20448;-80
2022/08/21 02:02:24;;;;;;;6.88;1.85;;;20.40;99.90;;;;;;5066884;28;20070;-81
2022/08/21 02:04:49;;;;;;;8.85;1.67;;;20.40;99.90;;;;;;5067056;28;20031;-80
2022/08/21 02:07:15;;;;;;;6.47;1.88;;;20.40;99.90;;;;;;5068229;28;20020;-80
2022/08/21 02:09:42;;;;;;;6.32;1.85;;;20.40;99.90;;;;;;5068074;28;20055;-81
2022/08/21 02:12:09;;;;;;;5.13;2.00;;;20.40;99.90;;;;;;5066836;28;20162;-79
2022/08/21 02:14:35;;;;;;;7.30;2.63;;;20.40;99.90;;;;;;5066778;28;20484;-79
2022/08/21 02:17:01;;;;;;;8.10;2.15;;;20.50;99.90;;;;;;5068392;28;20035;-80
2022/08/21 02:19:27;;;;;;;9.38;2.45;;;20.40;99.90;;;;;;5066720;28;20032;-81
2022/08/21 02:21:53;;;;;;;8.75;2.83;;;20.50;99.90;;;;;;5066051;28;20531;-81
2022/08/21 02:24:18;;;;;;;15.57;3.58;;;20.50;99.90;;;;;;5067764;28;20134;-80
2022/08/21 02:26:44;;;;;;;8.25;3.05;;;20.60;99.90;;;;;;5066698;28;20082;-80
2022/08/21 02:29:09;;;;;;;8.38;3.33;;;20.50;99.90;;;;;;5068158;28;20048;-80
2022/08/21 02:31:35;;;;;;;10.98;2.97;;;20.50;99.90;;;;;;5066332;28;20048;-80
2022/08/21 02:34:01;;;;;;;12.95;3.28;;;20.60;99.90;;;;;;5066757;28;20023;-80
2022/08/21 02:36:27;;;;;;;7.03;3.08;;;20.60;99.90;;;;;;5066171;28;20143;-80
2022/08/21 02:38:53;;;;;;;6.35;3.05;;;20.60;99.90;;;;;;5067827;28;20031;-80
2022/08/21 02:41:21;;;;;;;13.55;3.65;;;20.60;99.90;;;;;;5066354;28;20024;-79
2022/08/21 02:43:47;;;;;;;6.75;3.17;;;20.60;99.90;;;;;;5066619;28;20032;-80
2022/08/21 02:46:17;;;;;;;5.03;2.53;;;20.60;99.90;;;;;;5067154;28;20031;-80
2022/08/21 02:48:43;;;;;;;7.57;2.90;;;20.60;99.90;;;;;;5066396;28;20115;-80
2022/08/21 02:51:14;;;;;;;7.20;2.15;;;20.70;99.90;;;;;;5065330;28;20477;-79
2022/08/21 02:53:40;;;;;;;5.85;1.90;;;20.70;99.90;;;;;;5065820;28;20533;-79
2022/08/21 02:56:09;;;;;;;6.55;2.35;;;20.60;99.90;;;;;;5067141;28;20008;-78
2022/08/21 02:58:40;;;;;;;8.18;2.30;;;20.60;99.90;;;;;;5066038;28;20250;-79
2022/08/21 03:01:09;;;;;;;6.57;2.10;;;20.60;99.90;;;;;;5066534;28;20090;-80
2022/08/21 03:03:36;;;;;;;9.75;2.15;;;20.60;99.90;;;;;;5065836;28;20036;-80
2022/08/21 03:06:02;;;;;;;8.32;2.10;;;20.60;99.90;;;;;;5066838;28;20462;-80
2022/08/21 03:08:27;;;;;;;5.22;1.70;;;20.50;99.90;;;;;;5067316;28;20062;-80
2022/08/21 03:10:53;;;;;;;11.07;1.80;;;20.50;99.90;;;;;;5066094;28;20060;-80
2022/08/21 03:13:20;;;;;;;5.68;2.80;;;20.50;99.90;;;;;;5066777;28;20560;-80
2022/08/21 03:15:47;;;;;;;4.30;2.10;;;20.50;99.90;;;;;;5065229;28;20305;-80
2022/08/21 03:18:13;;;;;;;5.97;2.10;;;20.50;99.90;;;;;;5065869;28;20031;-80
2022/08/21 03:20:41;;;;;;;6.90;1.77;;;20.50;99.90;;;;;;5066960;28;20034;-80
2022/08/21 03:23:07;;;;;;;8.45;2.50;;;20.50;99.90;;;;;;5065367;28;20020;-78
2022/08/21 03:25:33;;;;;;;4.95;2.65;;;20.50;99.90;;;;;;5067089;28;20055;-80
2022/08/21 03:28:00;;;;;;;7.32;2.65;;;20.50;99.90;;;;;;5067167;28;20032;-79
2022/08/21 03:30:26;;;;;;;5.63;1.98;;;20.50;99.90;;;;;;5064850;28;20556;-80
2022/08/21 03:32:52;;;;;;;7.68;2.35;;;20.50;99.90;;;;;;5065624;28;20063;-80
2022/08/21 03:35:19;;;;;;;6.25;1.88;;;20.50;99.90;;;;;;5065354;28;20052;-81
2022/08/21 03:37:45;;;;;;;10.45;2.15;;;20.60;99.90;;;;;;5066988;28;20113;-79
2022/08/21 03:40:12;;;;;;;2.55;1.40;;;20.50;99.90;;;;;;5066397;28;20082;-80
2022/08/21 03:42:38;;;;;;;7.57;2.10;;;20.50;99.90;;;;;;5065285;28;20089;-79
2022/08/21 03:45:05;;;;;;;5.72;2.15;;;20.50;99.90;;;;;;5067111;28;20037;-79
2022/08/21 03:47:31;;;;;;;6.40;1.65;;;20.50;99.90;;;;;;5067173;28;20028;-80
2022/08/21 03:49:57;;;;;;;7.45;2.95;;;20.50;99.90;;;;;;5065181;28;20029;-79
2022/08/21 03:52:23;;;;;;;6.90;1.85;;;20.50;99.90;;;;;;5065910;28;20028;-79
2022/08/21 03:54:50;;;;;;;7.57;2.50;;;20.50;99.90;;;;;;5066275;28;20078;-81
2022/08/21 03:57:16;;;;;;;5.13;1.60;;;20.40;99.90;;;;;;5065532;28;20035;-80
2022/08/21 03:59:43;;;;;;;5.90;1.73;;;20.40;99.90;;;;;;5064817;28;20060;-80
2022/08/21 04:02:10;;;;;;;4.28;1.98;;;20.40;99.90;;;;;;5064008;28;20025;-78
2022/08/21 04:04:36;;;;;;;6.05;2.28;;;20.40;99.90;;;;;;5065056;28;20562;-80
2022/08/21 04:07:02;;;;;;;5.93;1.70;;;20.40;99.90;;;;;;5064744;28;20050;-80
2022/08/21 04:09:29;;;;;;;7.63;1.85;;;20.40;99.90;;;;;;5066548;28;20025;-79
2022/08/21 04:11:56;;;;;;;3.58;1.77;;;20.50;99.90;;;;;;5064733;28;20043;-80
2022/08/21 04:14:22;;;;;;;4.97;1.73;;;20.40;99.90;;;;;;5064990;28;20028;-80
2022/08/21 04:16:48;;;;;;;7.10;1.83;;;20.40;99.90;;;;;;5065110;28;20035;-79
2022/08/21 04:19:13;;;;;;;11.32;3.00;;;20.50;99.90;;;;;;5066167;28;20025;-80
2022/08/21 04:21:40;;;;;;;8.05;2.28;;;20.40;99.90;;;;;;5065885;28;20055;-79
2022/08/21 04:24:07;;;;;;;4.90;1.20;;;20.40;99.90;;;;;;5064785;28;20025;-80
2022/08/21 04:26:34;;;;;;;5.63;1.83;;;20.40;99.90;;;;;;5064630;28;20227;-80
2022/08/21 04:29:00;;;;;;;6.50;1.77;;;20.40;99.90;;;;;;5065968;28;20063;-81
2022/08/21 04:31:26;;;;;;;7.07;2.08;;;20.30;99.90;;;;;;5066043;28;20056;-79
2022/08/21 04:33:52;;;;;;;5.25;1.98;;;20.30;99.90;;;;;;5065369;28;20039;-80
2022/08/21 04:36:17;;;;;;;6.43;2.22;;;20.30;99.90;;;;;;5064652;28;20033;-80
2022/08/21 04:38:43;;;;;;;5.13;1.77;;;20.30;99.90;;;;;;5062546;28;20127;-80
2022/08/21 04:41:09;;;;;;;10.13;2.53;;;20.30;99.90;;;;;;5060872;28;20111;-81
2022/08/21 04:43:35;;;;;;;8.70;2.40;;;20.30;99.90;;;;;;5033980;28;20043;-80
2022/08/21 04:46:00;;;;;;;11.45;3.30;;;20.30;99.90;;;;;;5019175;28;20120;-79
2022/08/21 04:48:27;;;;;;;6.30;2.80;;;20.40;99.90;;;;;;5040214;28;20849;-80
2022/08/21 04:51:22;;;;;;;6.25;2.88;;;20.40;99.90;;;;;;5047477;28;20021;-80
2022/08/21 04:53:56;;;;;;;10.88;3.42;;;20.30;99.90;;;;;;5060680;28;20479;-79
2022/08/21 04:56:24;;;;;;;10.20;2.72;;;20.30;99.90;;;;;;5061270;28;20485;-79
2022/08/21 04:58:52;;;;;;;7.82;3.08;;;20.30;99.90;;;;;;5060538;28;20681;-80
2022/08/21 05:01:21;;;;;;;8.82;3.58;;;20.30;99.90;;;;;;5059654;28;20032;-80
2022/08/21 05:03:50;;;;;;;9.80;3.35;;;20.40;99.90;;;;;;5061380;28;20664;-80
2022/08/21 05:06:16;;;;;;;10.77;3.00;;;20.40;99.90;;;;;;5058597;28;20327;-80
2022/08/21 05:08:45;;;;;;;8.70;3.38;;;20.40;99.90;;;;;;5059803;28;20497;-80
2022/08/21 05:11:11;;;;;;;10.65;3.50;;;20.40;99.90;;;;;;5060523;28;20039;-80
2022/08/21 05:13:36;;;;;;;10.25;3.55;;;20.50;99.90;;;;;;5061651;28;20029;-80
2022/08/21 05:16:03;;;;;;;8.73;3.15;;;20.50;99.90;;;;;;5064231;28;20020;-78
2022/08/21 05:18:28;;;;;;;14.02;3.50;;;20.50;99.90;;;;;;5062732;28;20033;-80
2022/08/21 05:20:54;;;;;;;13.80;3.50;;;20.50;99.90;;;;;;5063358;28;20074;-80
2022/08/21 05:23:20;;;;;;;9.77;3.60;;;20.60;99.90;;;;;;5064571;28;20154;-80
2022/08/21 05:25:45;;;;;;;8.27;3.45;;;20.60;99.90;;;;;;5063379;28;20032;-79
2022/08/21 05:28:12;;;;;;;11.88;3.75;;;20.60;99.90;;;;;;5062519;28;20094;-80
2022/08/21 05:30:38;;;;;;;10.45;3.25;;;20.60;99.90;;;;;;5065860;28;20126;-79
2022/08/21 05:33:05;;;;;;;9.43;3.22;;;20.60;99.90;;;;;;5064048;28;20079;-80
2022/08/21 05:35:32;;;;;;;8.77;3.10;;;20.70;99.90;;;;;;5065175;28;20027;-80
2022/08/21 05:37:59;;;;;;;11.77;4.57;;;20.70;99.90;;;;;;5064529;28;20124;-79
2022/08/21 05:40:26;;;;;;;11.00;3.78;;;20.80;99.90;;;;;;5066795;28;20062;-78
2022/08/21 05:42:53;;;;;;;9.85;3.47;;;20.90;99.90;;;;;;5065929;28;20029;-79
2022/08/21 05:45:19;;;;;;;10.73;3.42;;;20.90;99.90;;;;;;5063733;28;20516;-80
2022/08/21 05:47:45;;;;;;;10.90;3.95;;;21.00;99.90;;;;;;5065068;28;20036;-80
2022/08/21 05:50:11;;;;;;;12.75;3.70;;;21.00;99.90;;;;;;5063296;28;20131;-80
2022/08/21 05:52:37;;;;;;;9.48;4.03;;;21.00;99.90;;;;;;5063731;28;20040;-78
2022/08/21 05:55:03;;;;;;;14.05;4.60;;;21.10;99.90;;;;;;5065136;28;20027;-80
2022/08/21 05:57:29;;;;;;;6.25;3.15;;;21.10;99.90;;;;;;5063510;28;20508;-81
2022/08/21 05:59:54;;;;;;;8.27;2.90;;;21.10;99.90;;;;;;5065460;28;20024;-81
2022/08/21 06:02:21;;;;;;;9.77;3.55;;;21.20;99.90;;;;;;5062826;28;20065;-80
2022/08/21 06:04:47;;;;;;;9.27;3.75;;;21.30;99.90;;;;;;5063734;28;20028;-80
2022/08/21 06:07:14;;;;;;;11.52;4.40;;;21.30;99.90;;;;;;5064595;28;20036;-81
2022/08/21 06:09:39;;;;;;;11.55;4.72;;;21.40;99.90;;;;;;5065021;28;20103;-81
2022/08/21 06:12:10;;;;;;;10.82;3.50;;;21.50;99.90;;;;;;5063417;28;20123;-81
2022/08/21 06:14:38;;;;;;;11.63;4.43;;;21.50;99.90;;;;;;5063139;28;20047;-80
2022/08/21 06:17:06;;;;;;;14.43;3.53;;;21.60;99.90;;;;;;5064939;28;20043;-80
2022/08/21 06:19:32;;;;;;;9.43;3.10;;;21.60;99.90;;;;;;5062611;28;20397;-80
2022/08/21 06:21:58;;;;;;;11.75;4.03;;;21.70;99.90;;;;;;5064336;28;20559;-81
2022/08/21 06:24:25;;;;;;;8.80;3.55;;;21.60;99.90;;;;;;5062979;28;20264;-80
2022/08/21 06:26:50;;;;;;;11.90;3.60;;;21.60;99.90;;;;;;5063449;28;20052;-79
2022/08/21 06:29:17;;;;;;;7.32;3.10;;;21.60;99.90;;;;;;5062607;28;20075;-78
2022/08/21 06:31:43;;;;;;;13.75;4.28;;;21.60;99.90;;;;;;5063093;28;20126;-80
2022/08/21 06:34:10;;;;;;;8.45;3.67;;;21.60;99.90;;;;;;5062037;28;20070;-79
2022/08/21 06:36:36;;;;;;;11.70;3.72;;;21.60;99.90;;;;;;5063382;28;20489;-80
2022/08/21 06:39:02;;;;;;;10.70;3.17;;;21.60;99.90;;;;;;5064867;28;20017;-81
2022/08/21 06:41:28;;;;;;;9.05;3.40;;;21.60;99.90;;;;;;5066156;28;20029;-79
2022/08/21 06:43:55;;;;;;;10.35;3.47;;;21.60;99.90;;;;;;5065789;28;20481;-80
2022/08/21 06:46:21;;;;;;;9.15;3.38;;;21.60;99.90;;;;;;5066275;28;20120;-80
2022/08/21 06:48:46;;;;;;;8.15;3.35;;;21.60;99.90;;;;;;5065873;28;20111;-80
2022/08/21 06:51:12;;;;;;;9.65;2.72;;;21.60;99.90;;;;;;5067334;28;20028;-80
2022/08/21 06:53:38;;;;;;;6.70;2.80;;;21.60;99.90;;;;;;5065741;28;20033;-81
2022/08/21 06:56:04;;;;;;;7.88;2.75;;;21.70;99.90;;;;;;5066366;28;20074;-79
2022/08/21 06:58:30;;;;;;;6.13;2.47;;;21.70;99.90;;;;;;5065788;28;20481;-80
2022/08/21 07:00:56;;;;;;;8.38;3.45;;;21.80;99.90;;;;;;5065940;28;20067;-80
2022/08/21 07:03:23;;;;;;;10.05;2.33;;;21.90;99.90;;;;;;5067352;28;20048;-80
2022/08/21 07:05:50;;;;;;;5.78;2.15;;;22.00;99.90;;;;;;5066025;28;20036;-80
2022/08/21 07:08:16;;;;;;;8.57;2.40;;;22.10;99.90;;;;;;5065308;28;20024;-80
2022/08/21 07:10:42;;;;;;;7.28;2.83;;;22.20;99.90;;;;;;5066281;28;20574;-80
2022/08/21 07:13:08;;;;;;;6.75;2.38;;;22.30;99.90;;;;;;5065751;28;20040;-80
2022/08/21 07:15:33;;;;;;;5.28;2.13;;;22.40;99.90;;;;;;5067430;28;20055;-79
2022/08/21 07:18:00;;;;;;;8.68;2.83;;;22.50;99.90;;;;;;5065784;28;20028;-81
2022/08/21 07:20:30;;;;;;;7.10;3.13;;;22.60;99.90;;;;;;5066314;28;20035;-79
2022/08/21 07:23:00;;;;;;;7.70;4.18;;;22.70;99.90;;;;;;5067125;28;20021;-80
2022/08/21 07:25:25;;;;;;;12.35;5.55;;;22.60;99.90;;;;;;5067510;28;20100;-80
2022/08/21 07:27:51;;;;;;;10.52;4.25;;;22.60;99.90;;;;;;5065279;28;20144;-80
2022/08/21 07:30:17;;;;;;;8.43;4.30;;;22.60;99.90;;;;;;5065103;28;20086;-80
2022/08/21 07:32:43;;;;;;;12.07;5.07;;;22.60;99.90;;;;;;5066400;28;20051;-81
2022/08/21 07:35:09;;;;;;;14.70;5.22;;;22.60;99.90;;;;;;5065583;28;20024;-79
2022/08/21 07:37:34;;;;;;;15.65;5.57;;;22.60;99.90;;;;;;5066203;28;20032;-79
2022/08/21 07:40:00;;;;;;;10.10;4.65;;;22.60;99.90;;;;;;5065864;28;20059;-80
2022/08/21 07:42:26;;;;;;;12.77;5.40;;;22.60;99.90;;;;;;5066963;28;20035;-80
2022/08/21 07:44:51;;;;;;;9.63;4.35;;;22.60;99.90;;;;;;5065326;28;20029;-79
2022/08/21 07:47:17;;;;;;;9.05;4.68;;;22.60;99.90;;;;;;5065036;28;20042;-79
2022/08/21 07:49:43;;;;;;;7.97;3.95;;;22.60;99.90;;;;;;5066379;28;20051;-79
2022/08/21 07:52:08;;;;;;;10.05;5.55;;;22.60;99.90;;;;;;5064888;28;20047;-78
2022/08/21 07:54:34;;;;;;;7.65;4.45;;;22.70;99.90;;;;;;5065197;28;20025;-79
2022/08/21 07:57:01;;;;;;;6.88;3.97;;;22.70;99.90;;;;;;5065116;28;20140;-79
2022/08/21 07:59:27;;;;;;;9.82;4.50;;;22.70;99.90;;;;;;5066673;28;20028;-79
2022/08/21 08:01:53;;;;;;;10.38;4.00;;;22.70;99.90;;;;;;5066531;28;20021;-80
2022/08/21 08:04:18;;;;;;;9.90;4.43;;;22.70;99.90;;;;;;5064869;28;20123;-79
2022/08/21 08:06:44;;;;;;;8.93;4.22;;;22.70;99.90;;;;;;5065515;28;20021;-79
2022/08/21 08:09:09;;;;;;;9.63;4.57;;;22.70;99.90;;;;;;5064960;28;20025;-79
2022/08/21 08:11:38;;;;;;;8.80;3.83;;;22.80;99.90;;;;;;5064935;28;20028;-79
2022/08/21 08:14:04;;;;;;;10.77;4.40;;;22.70;99.90;;;;;;5066084;28;20039;-80
2022/08/21 08:16:29;;;;;;;10.52;4.88;;;22.80;99.90;;;;;;5064429;28;20028;-78
2022/08/21 08:18:55;;;;;;;13.77;4.40;;;22.80;99.90;;;;;;5066389;28;20251;-79
2022/08/21 08:21:21;;;;;;;13.10;3.70;;;22.80;99.90;;;;;;5066472;28;20028;-79
2022/08/21 08:23:47;;;;;;;8.10;4.75;;;22.90;99.90;;;;;;5064220;28;20039;-79
2022/08/21 08:26:12;;;;;;;8.75;3.95;;;22.90;99.90;;;;;;5064716;28;20020;-79
2022/08/21 08:28:38;;;;;;;7.25;4.22;;;23.00;99.90;;;;;;5064541;28;20033;-78
2022/08/21 08:31:04;;;;;;;12.15;4.22;;;23.10;99.90;;;;;;5065929;28;20041;-79
2022/08/21 08:33:30;;;;;;;9.13;5.20;;;23.20;99.90;;;;;;5064818;28;20039;-80
2022/08/21 08:35:55;;;;;;;13.35;5.72;;;23.30;99.90;;;;;;5064599;28;20039;-78
2022/08/21 08:38:23;;;;;;;12.40;4.78;;;23.40;99.90;;;;;;5064257;28;20027;-79
2022/08/21 08:41:12;;;;;;;12.00;5.78;;;23.50;99.90;;;;;;5065984;28;20085;-79
2022/08/21 08:43:40;;;;;;;14.13;5.63;;;23.50;99.90;;;;;;5064478;28;20397;-79
2022/08/21 08:46:14;;;;;;;15.27;5.82;;;23.60;99.90;;;;;;5064320;28;20856;-78
2022/08/21 08:48:48;;;;;;;12.95;6.60;;;23.70;99.90;;;;;;5067146;28;20017;-77
2022/08/21 08:51:44;;;;;;;7.95;4.75;;;23.80;99.90;;;;;;5070272;28;20043;-78
2022/08/21 08:54:17;;;;;;;14.45;6.68;;;23.80;99.90;;;;;;5051259;28;20045;-79
2022/08/21 08:56:44;;;;;;;14.18;5.78;;;24.00;99.90;;;;;;5068833;28;20072;-79
2022/08/21 08:59:20;;;;;;;11.80;5.38;;;24.10;99.90;;;;;;5068168;28;20102;-80
2022/08/21 09:01:46;;;;;;;11.55;6.43;;;24.20;99.90;;;;;;5068089;28;20037;-79
2022/08/21 09:04:13;;;;;;;10.70;5.75;;;24.30;99.90;;;;;;5067721;28;20408;-79
2022/08/21 09:06:51;;;;;;;13.75;6.57;;;24.40;99.90;;;;;;5068385;28;20417;-79
2022/08/21 09:09:42;;;;;;;11.82;5.65;;;24.50;99.90;;;;;;5067770;28;20451;-78
2022/08/21 09:12:56;;;;;;;12.60;5.80;;;24.60;99.90;;;;;;5069222;28;20040;-80
2022/08/21 09:15:31;;;;;;;11.63;6.35;;;24.70;99.90;;;;;;5060200;28;20110;-79
2022/08/21 09:18:07;;;;;;;19.42;6.70;;;24.80;99.90;;;;;;5068939;28;20112;-79
2022/08/21 09:20:38;;;;;;;11.40;5.25;;;24.90;99.90;;;;;;5067940;28;20035;-80
2022/08/21 09:23:07;;;;;;;10.68;5.15;;;24.90;99.90;;;;;;5067973;28;20064;-79
2022/08/21 09:25:50;;;;;;;7.53;4.85;;;24.90;99.90;;;;;;5067845;28;20025;-80
2022/08/21 09:28:16;;;;;;;9.77;5.10;;;24.90;99.90;;;;;;5067860;28;20028;-80
2022/08/21 09:30:42;;;;;;;11.15;5.10;;;24.90;99.90;;;;;;5068158;28;20117;-79
2022/08/21 09:33:11;;;;;;;11.82;5.35;;;24.90;99.90;;;;;;5068935;28;20894;-80
2022/08/21 09:35:47;;;;;;;9.90;4.25;;;24.80;99.90;;;;;;5067581;28;20139;-80
2022/08/21 09:38:25;;;;;;;11.98;4.18;;;24.90;99.90;;;;;;5068811;28;20055;-78
2022/08/21 09:40:58;;;;;;;9.48;4.95;;;25.00;99.90;;;;;;5067652;28;20028;-80
2022/08/21 09:43:26;;;;;;;9.45;3.67;;;25.10;99.90;;;;;;5069074;28;20036;-80
2022/08/21 09:46:21;;;;;;;13.35;4.45;;;25.20;99.90;;;;;;5068660;28;20409;-80
2022/08/21 09:48:49;;;;;;;9.73;4.15;;;25.30;99.90;;;;;;5067605;28;20497;-80
2022/08/21 09:51:22;;;;;;;11.80;5.30;;;25.20;99.90;;;;;;5068928;28;20024;-80
2022/08/21 09:53:53;;;;;;;10.30;5.22;;;25.20;99.90;;;;;;5067252;28;20121;-80
2022/08/21 09:59:18;;;;;;;10.98;4.47;;;25.10;99.90;;;;;;5068556;28;20052;-80
2022/08/21 10:01:49;;;;;;;10.07;3.83;;;24.90;99.90;;;;;;5066671;28;20089;-79
2022/08/21 10:04:21;;;;;;;10.10;3.88;;;24.90;99.90;;;;;;5068669;28;20055;-79
2022/08/21 10:06:47;;;;;;;10.77;3.88;;;25.00;99.90;;;;;;5066956;28;20053;-80
2022/08/21 10:09:15;;;;;;;13.80;3.28;;;25.10;99.90;;;;;;5068489;28;20024;-80
2022/08/21 10:12:00;;;;;;;10.70;3.42;;;25.20;99.90;;;;;;5068389;28;20039;-79
2022/08/21 10:14:41;;;;;;;12.43;3.80;;;25.30;99.90;;;;;;5067200;28;20032;-80
2022/08/21 10:17:17;;;;;;;9.52;3.35;;;25.50;99.90;;;;;;5067859;28;20380;-80
2022/08/21 10:20:06;;;;;;;8.27;3.03;;;25.70;99.90;;;;;;5066702;28;20060;-79
2022/08/21 10:22:42;;;;;;;7.82;3.53;;;25.80;99.90;;;;;;5066625;28;20051;-80
2022/08/21 10:25:19;;;;;;;10.40;3.65;;;25.90;99.90;;;;;;5068179;28;20121;-80
2022/08/21 10:27:51;;;;;;;9.75;4.18;;;26.00;99.90;;;;;;5066554;28;20024;-79
2022/08/21 10:30:29;;;;;;;7.72;4.57;;;26.20;99.90;;;;;;5067098;28;20528;-80
2022/08/21 10:33:05;;;;;;;13.48;4.57;;;26.30;99.90;;;;;;5066594;28;20040;-79
2022/08/21 10:35:56;;;;;;;10.00;3.30;;;26.40;99.90;;;;;;5066907;28;20554;-79
2022/08/21 10:38:46;;;;;;;6.85;2.80;;;26.40;99.90;;;;;;5067511;28;20025;-80
2022/08/21 10:41:40;;;;;;;15.20;3.72;;;26.40;99.90;;;;;;5068160;28;20032;-80
2022/08/21 10:44:38;;;;;;;12.40;3.05;;;26.30;99.90;;;;;;5066986;28;20039;-81
2022/08/21 10:47:26;;;;;;;9.23;2.92;;;26.00;99.90;;;;;;5066438;28;20054;-80
2022/08/21 10:50:11;;;;;;;9.75;3.55;;;26.10;99.90;;;;;;5066633;28;20036;-79
2022/08/21 10:52:43;;;;;;;9.45;3.25;;;26.20;99.90;;;;;;5065991;28;20043;-79
2022/08/21 10:55:09;;;;;;;7.82;3.60;;;26.30;99.90;;;;;;5065935;28;20031;-79
2022/08/21 10:57:58;;;;;;;7.32;3.03;;;26.20;99.90;;;;;;5067420;28;20028;-80
2022/08/21 11:00:33;;;;;;;15.02;3.83;;;26.30;99.90;;;;;;5065316;28;20048;-80
2022/08/21 11:03:20;;;;;;;15.47;4.73;;;26.40;99.90;;;;;;5067070;28;20029;-80
2022/08/21 11:05:53;;;;;;;11.30;3.45;;;26.40;99.90;;;;;;5067430;28;20025;-80
2022/08/21 11:08:34;;;;;;;13.40;4.07;;;26.40;99.90;;;;;;5065635;28;20029;-80
2022/08/21 11:11:15;;;;;;;7.43;3.28;;;26.20;99.90;;;;;;5065635;28;20495;-79
2022/08/21 11:13:51;;;;;;;10.15;3.92;;;26.20;99.90;;;;;;5067590;28;20040;-79
2022/08/21 11:16:31;;;;;;;13.70;3.85;;;26.20;99.90;;;;;;5065431;28;20035;-79
2022/08/21 11:19:19;;;;;;;12.65;4.03;;;26.20;99.90;;;;;;5065671;28;20040;-79
2022/08/21 11:21:48;;;;;;;10.27;3.33;;;26.20;99.90;;;;;;5067201;28;20119;-80
2022/08/21 11:24:31;;;;;;;10.77;3.30;;;26.30;99.90;;;;;;5065771;28;20028;-80
2022/08/21 11:27:06;;;;;;;9.98;3.67;;;26.40;99.90;;;;;;5065949;28;20496;-80
2022/08/21 11:29:37;;;;;;;9.05;3.63;;;26.60;99.90;;;;;;5067620;28;20408;-80
2022/08/21 11:32:36;;;;;;;12.70;3.58;;;26.70;99.90;;;;;;5066836;28;20138;-80
2022/08/21 11:35:17;;;;;;;14.07;4.30;;;26.90;99.90;;;;;;5065366;28;20278;-81
2022/08/21 11:38:17;;;;;;;12.88;4.80;;;27.10;99.90;;;;;;5065090;28;20042;-79
2022/08/21 11:40:52;;;;;;;13.70;4.80;;;27.00;99.90;;;;;;5066340;28;20029;-80
2022/08/21 11:43:42;;;;;;;15.80;4.50;;;26.80;99.90;;;;;;5065784;28;20029;-80
2022/08/21 11:46:19;;;;;;;13.80;4.55;;;26.90;99.90;;;;;;5065083;28;20279;-80
2022/08/21 11:49:06;;;;;;;11.05;4.00;;;27.10;99.90;;;;;;5065306;28;20040;-80
2022/08/21 11:51:39;;;;;;;17.63;6.22;;;27.20;99.90;;;;;;5064678;28;20024;-80
2022/08/21 11:54:16;;;;;;;16.30;5.78;;;27.20;99.90;;;;;;5066903;28;20087;-80
2022/08/21 11:56:48;;;;;;;10.70;4.35;;;27.20;99.90;;;;;;5065587;28;20028;-79
2022/08/21 11:59:42;;;;;;;12.35;5.45;;;27.10;99.90;;;;;;5064741;28;20025;-79
2022/08/21 12:02:14;;;;;;;13.32;5.07;;;27.20;99.90;;;;;;5064926;28;20548;-78
2022/08/21 12:04:54;;;;;;;13.02;4.40;;;27.20;99.90;;;;;;5065528;28;20115;-80
2022/08/21 12:07:33;;;;;;;19.38;5.90;;;27.10;99.90;;;;;;5064927;28;20036;-78
2022/08/21 12:09:59;;;;;;;15.25;4.90;;;27.00;99.90;;;;;;5065293;28;20119;-81
2022/08/21 12:12:31;;;;;;;13.60;5.47;;;26.80;99.90;;;;;;5065981;28;20044;-80
2022/08/21 12:15:22;;;;;;;14.75;5.57;;;26.90;99.90;;;;;;5064713;28;20074;-80
2022/08/21 12:17:55;;;;;;;14.18;4.78;;;26.70;99.90;;;;;;5064904;28;20425;-80
2022/08/21 12:20:20;;;;;;;14.55;4.47;;;26.50;99.90;;;;;;5064934;28;20036;-80
2022/08/21 12:23:10;;;;;;;10.88;4.70;;;26.50;99.90;;;;;;5064853;28;20504;-80
2022/08/21 12:25:40;;;;;;;10.15;4.18;;;26.60;99.90;;;;;;5069014;28;20044;-80
2022/08/21 12:28:22;;;;;;;20.55;5.90;;;26.70;99.90;;;;;;5069163;28;20071;-78
2022/08/21 12:30:48;;;;;;;17.70;5.05;;;26.80;99.90;;;;;;5069333;28;20048;-79
2022/08/21 12:33:35;;;;;;;16.45;4.93;;;26.80;99.90;;;;;;5069277;28;20093;-80
2022/08/21 12:36:07;;;;;;;;;;;26.90;99.90;;;;;;5069824;28;20068;-79
2022/08/21 12:38:58;;;;;;;12.43;4.78;;;26.90;99.90;;;;;;5069035;28;19956;-78
2022/08/21 12:41:45;;;;;;;13.23;4.35;;;26.90;99.90;;;;;;5069190;28;20035;-79
2022/08/21 12:44:16;;;;;;;11.27;4.75;;;26.70;99.90;;;;;;5068310;28;20396;-80
2022/08/21 12:47:03;;;;;;;14.82;5.38;;;26.80;99.90;;;;;;5068516;28;20354;-80
2022/08/21 12:49:41;;;;;;;11.93;5.30;;;26.70;99.90;;;;;;5068501;28;20028;-80
2022/08/21 12:52:30;;;;;;;7.90;3.92;;;26.80;99.90;;;;;;5068148;28;20036;-79
2022/08/21 12:54:55;;;;;;;15.85;4.38;;;26.80;99.90;;;;;;5068073;28;20045;-78
2022/08/21 12:57:24;;;;;;;13.65;4.90;;;26.80;99.90;;;;;;5069975;28;20071;-79
2022/08/21 12:59:56;;;;;;;13.85;4.50;;;26.80;99.90;;;;;;5066925;28;20020;-79
2022/08/21 13:02:46;;;;;;;13.15;4.72;;;26.80;99.90;;;;;;5069461;28;20020;-80